KMVL

Details ICAO KMVL (MVL)
Name MORRISVILLE STOWE STATE
Region United States
Timezone America/New_York (UTC-5.0)
Plans Departing 6
Arriving 6
Stats Elevation 732 ft / 223 m (AMSL)
Location 44.534605° -72.614009°
Runways 1
Magnetic Variation 14.580° W
Sunrise 2017-12-16 12:22:25 UTC / 2017-12-16 07:22:25 Local
Sunset 2017-12-16 21:12:43 UTC / 2017-12-16 16:12:43 Local
Advertisement - Login to hide

Runways

ID Width Length Bearing (true) Bearing (mag) Surface Threshold Offset Overrun Length
01 75 ft / 23 m 3,704 ft / 1,129 m 358.31° 12.89° Asphalt 0 ft / 0 m 0 ft / 0 m
19 75 ft / 23 m 3,704 ft / 1,129 m 178.31° 192.89° Asphalt 0 ft / 0 m 0 ft / 0 m

Map

Weather


0- 5 10 15 20 25 30 35+ Temperature / ° C

Clouds and Precipitation
Forecast for 2017-12-16 12:00 UTC. Updated 2 hours ago

Ground ~20,000 ft ~40,000 ft Winds

METAR

KMVL 161109Z AUTO 01004KT 3SM -SN BR OVC026 M13/M14 A2977 RMK AO2 P0000 T11281144

TAF

Not found

Frequencies

Recorded 135.62 MHz ASOS
Unicom 122.80 MHz CTAF/UNICOM
Warning: Do not use this data for real-world aviation or navigation. No guarantee of current accuracy is given.